Time;durP1;ratioP1;P1;durP2;ratioP2;P2;SDS_P1;SDS_P2;PMS_P1;PMS_P2;Temp;Humidity;BMP_temperature;BMP_pressure;BME280_temperature;BME280_humidity;BME280_pressure;Samples;Min_cycle;Max_cycle;Signal;HPM_P1;HPM_P2
2023/12/10 00:01:00;;;;;;;6.88;2.17;;;;;;;12.12;100.00;101283.31;10576163;27;20045;-78
2023/12/10 00:06:23;;;;;;;6.22;3.30;;;;;;;12.02;100.00;101284.00;10567175;28;20040;-80
2023/12/10 00:11:46;;;;;;;1.95;1.20;;;;;;;12.02;100.00;101284.00;10582259;28;20047;-78
2023/12/10 00:17:10;;;;;;;3.10;1.20;;;;;;;12.22;100.00;101278.22;10593875;27;20054;-79
2023/12/10 00:22:32;;;;;;;1.55;1.15;;;;;;;12.38;100.00;101289.97;10572211;27;20509;-79
2023/12/10 00:27:55;;;;;;;1.50;1.10;;;;;;;12.36;100.00;101289.94;10561097;28;20059;-79
2023/12/10 00:33:19;;;;;;;2.88;1.08;;;;;;;12.45;100.00;101280.34;10573332;28;20039;-78
2023/12/10 00:38:42;;;;;;;3.08;1.73;;;;;;;12.51;100.00;101299.00;10561985;28;20431;-79
2023/12/10 00:44:05;;;;;;;19.98;15.05;;;;;;;12.36;100.00;101294.31;10586149;28;20127;-79
2023/12/10 00:49:29;;;;;;;17.48;15.32;;;;;;;12.29;100.00;101289.78;10589983;28;20040;-79
2023/12/10 00:54:51;;;;;;;14.00;11.57;;;;;;;12.29;100.00;101279.19;10532311;28;20054;-79
2023/12/10 01:00:15;;;;;;;14.18;12.68;;;;;;;12.36;100.00;101276.69;10563318;28;20044;-78
2023/12/10 01:05:39;;;;;;;6.47;4.70;;;;;;;12.24;100.00;101272.94;10569534;28;20591;-79
2023/12/10 01:11:02;;;;;;;5.78;4.20;;;;;;;12.00;100.00;101280.47;10577948;28;20050;-79
2023/12/10 01:16:24;;;;;;;7.22;3.45;;;;;;;12.04;100.00;101283.19;10585403;27;20076;-79
2023/12/10 01:21:49;;;;;;;4.22;1.60;;;;;;;12.28;100.00;101283.59;10583623;27;20047;-79
2023/12/10 01:27:12;;;;;;;2.58;1.95;;;;;;;12.45;100.00;101286.53;10582026;27;20039;-78
2023/12/10 01:32:34;;;;;;;3.67;2.58;;;;;;;12.48;100.00;101286.56;10592486;27;20117;-79
2023/12/10 01:37:59;;;;;;;3.58;1.73;;;;;;;12.52;100.00;101288.44;10569727;27;20408;-78
2023/12/10 01:43:21;;;;;;;3.75;2.20;;;;;;;12.67;100.00;101279.81;10601963;27;20624;-80
2023/12/10 01:48:46;;;;;;;2.92;1.95;;;;;;;12.77;100.00;101276.44;10589142;27;20051;-79
2023/12/10 01:54:16;;;;;;;8.77;5.13;;;;;;;12.96;100.00;101280.25;10592200;27;20043;-78
2023/12/10 01:59:38;;;;;;;5.18;3.58;;;;;;;13.19;100.00;101276.22;10580905;27;20048;-79
2023/12/10 02:05:06;;;;;;;31.60;28.33;;;;;;;13.20;100.00;101282.38;10565316;27;20052;-78
2023/12/10 02:10:30;;;;;;;8.43;5.20;;;;;;;13.13;100.00;101270.78;10575843;27;20792;-79
2023/12/10 02:15:52;;;;;;;4.68;1.55;;;;;;;13.30;100.00;101269.28;10581844;27;20492;-78
2023/12/10 02:21:15;;;;;;;4.22;1.40;;;;;;;13.37;100.00;101280.84;10598467;27;20047;-79
2023/12/10 02:26:42;;;;;;;3.45;1.85;;;;;;;13.40;100.00;101268.50;10579952;27;20566;-79
2023/12/10 02:32:06;;;;;;;4.05;2.00;;;;;;;13.37;100.00;101262.28;10575345;27;20095;-79
2023/12/10 02:37:29;;;;;;;2.67;2.10;;;;;;;13.29;100.00;101275.44;10602756;27;20658;-79
2023/12/10 02:42:53;;;;;;;3.28;1.63;;;;;;;13.31;100.00;101279.00;10589695;27;20143;-78
2023/12/10 02:48:17;;;;;;;4.93;2.10;;;;;;;13.37;100.00;101276.44;10579449;27;20051;-80
2023/12/10 02:53:40;;;;;;;6.78;3.63;;;;;;;13.12;100.00;101271.66;10565706;27;20562;-78
2023/12/10 02:59:04;;;;;;;11.30;5.70;;;;;;;12.93;100.00;101272.28;10535465;28;20050;-79
2023/12/10 03:04:26;;;;;;;7.45;3.97;;;;;;;12.65;100.00;101266.56;10558189;27;20076;-78
2023/12/10 03:09:49;;;;;;;8.95;2.78;;;;;;;12.46;100.00;101283.03;10578046;27;20047;-78
2023/12/10 03:15:13;;;;;;;6.30;1.80;;;;;;;12.70;100.00;101277.22;10575312;27;20058;-79
2023/12/10 03:20:36;;;;;;;3.88;2.53;;;;;;;12.65;100.00;101287.75;10577403;27;20477;-79
2023/12/10 03:25:58;;;;;;;1.48;1.20;;;;;;;12.53;100.00;101291.97;10557049;27;20051;-78
2023/12/10 03:31:22;;;;;;;1.95;1.70;;;;;;;12.43;100.00;101297.97;10599262;27;20054;-79
2023/12/10 03:36:45;;;;;;;2.50;1.60;;;;;;;12.30;100.00;101302.16;10585334;27;20485;-79
2023/12/10 03:42:07;;;;;;;3.58;1.88;;;;;;;12.48;100.00;101310.41;10565099;27;20039;-79
2023/12/10 03:47:31;;;;;;;3.55;1.67;;;;;;;12.65;100.00;101321.31;10560133;28;20044;-79
2023/12/10 03:52:54;;;;;;;14.75;12.45;;;;;;;12.89;100.00;101321.66;10551545;28;20051;-79
2023/12/10 03:58:16;;;;;;;10.80;9.65;;;;;;;13.08;100.00;101317.53;10569754;27;20043;-78
2023/12/10 04:03:41;;;;;;;7.25;4.65;;;;;;;13.19;100.00;101329.22;10577664;27;20050;-79
2023/12/10 04:09:04;;;;;;;4.70;3.42;;;;;;;13.29;100.00;101336.44;10573033;28;20071;-78
2023/12/10 04:14:27;;;;;;;3.58;2.95;;;;;;;13.49;100.00;101334.94;10594071;27;20047;-79
2023/12/10 04:19:51;;;;;;;3.83;2.50;;;;;;;13.68;100.00;101333.38;10558301;28;20050;-79
2023/12/10 04:25:14;;;;;;;7.15;6.13;;;;;;;13.73;100.00;101341.41;10585607;28;20051;-78
2023/12/10 04:30:36;;;;;;;6.60;3.10;;;;;;;13.79;100.00;101344.13;10573706;28;20059;-78
2023/12/10 04:36:00;;;;;;;2.65;2.03;;;;;;;13.84;100.00;101343.34;10561435;28;20043;-79
2023/12/10 04:41:23;;;;;;;13.27;6.70;;;;;;;13.94;100.00;101353.16;10547896;28;20437;-79
2023/12/10 04:46:45;;;;;;;8.40;4.57;;;;;;;13.91;100.00;101352.25;10571386;28;20047;-79
2023/12/10 04:52:09;;;;;;;5.95;3.38;;;;;;;13.81;100.00;101355.66;10595670;27;20563;-80
2023/12/10 04:57:32;;;;;;;6.57;2.22;;;;;;;13.84;100.00;101371.63;10589072;27;20122;-79
2023/12/10 05:02:55;;;;;;;7.38;4.00;;;;;;;13.88;100.00;101374.34;10572495;27;20069;-79
2023/12/10 05:08:18;;;;;;;4.32;2.17;;;;;;;13.78;100.00;101364.50;10556694;27;20054;-79
2023/12/10 05:13:41;;;;;;;3.38;1.75;;;;;;;13.68;100.00;101369.66;10579149;27;20400;-80
2023/12/10 05:19:04;;;;;;;4.20;1.67;;;;;;;13.63;100.00;101372.25;10586028;27;20054;-79
2023/12/10 05:24:28;;;;;;;6.13;3.47;;;;;;;13.79;100.00;101384.81;10599548;27;20284;-80
2023/12/10 05:29:50;;;;;;;7.20;2.60;;;;;;;13.98;100.00;101380.63;10577202;27;20058;-78
2023/12/10 05:35:14;;;;;;;5.18;2.20;;;;;;;14.03;100.00;101370.97;10566756;27;20062;-79
2023/12/10 05:40:38;;;;;;;7.13;1.85;;;;;;;14.06;100.00;101378.06;10571528;27;20409;-79
2023/12/10 05:46:00;;;;;;;4.75;2.22;;;;;;;14.12;100.00;101378.13;10551446;27;20058;-78
2023/12/10 05:51:23;;;;;;;7.22;5.07;;;;;;;14.20;100.00;101381.75;10567319;27;20492;-79
2023/12/10 05:56:47;;;;;;;5.10;3.75;;;;;;;14.33;100.00;101383.66;10556070;27;20047;-78
2023/12/10 06:02:09;;;;;;;19.35;17.48;;;;;;;14.45;100.00;101396.22;10557369;27;20047;-79
2023/12/10 06:07:32;;;;;;;6.75;5.85;;;;;;;14.47;100.00;101391.81;10594214;27;20054;-78
2023/12/10 06:12:56;;;;;;;10.82;5.10;;;;;;;14.55;100.00;101391.03;10566221;27;20105;-79
2023/12/10 06:18:19;;;;;;;5.63;3.33;;;;;;;14.66;100.00;101375.16;10585880;27;20050;-79
2023/12/10 06:23:41;;;;;;;3.67;2.80;;;;;;;14.92;100.00;101376.25;10570459;27;20706;-79
2023/12/10 06:29:05;;;;;;;4.93;3.35;;;;;;;15.01;100.00;101389.66;10570424;27;20054;-79
2023/12/10 06:34:28;;;;;;;4.05;2.95;;;;;;;15.11;100.00;101387.94;10579219;27;20047;-79
2023/12/10 06:39:51;;;;;;;6.05;2.95;;;;;;;15.40;100.00;101377.47;10584680;27;20097;-78
2023/12/10 06:45:15;;;;;;;10.50;6.65;;;;;;;15.67;100.00;101377.66;10572948;27;20440;-79
2023/12/10 06:50:37;;;;;;;9.18;7.45;;;;;;;15.94;100.00;101361.81;10590405;27;20416;-78
2023/12/10 06:56:00;;;;;;;8.82;6.20;;;;;;;16.06;100.00;101378.69;10573523;27;20058;-79
2023/12/10 07:01:24;;;;;;;22.95;13.95;;;;;;;16.18;100.00;101389.38;10577244;27;20126;-78
2023/12/10 07:06:47;;;;;;;6.47;3.97;;;;;;;16.17;100.00;101398.25;10566556;27;20051;-80
2023/12/10 07:12:09;;;;;;;5.32;2.95;;;;;;;16.32;100.00;101407.19;10563787;27;20039;-80
2023/12/10 07:17:33;;;;;;;4.70;2.03;;;;;;;16.46;100.00;101412.56;10542421;27;20192;-78
2023/12/10 07:22:56;;;;;;;2.80;2.30;;;;;;;16.49;100.00;101415.22;10590285;27;20556;-79
2023/12/10 07:28:19;;;;;;;3.83;2.30;;;;;;;16.69;100.00;101429.50;10589489;27;20138;-79
2023/12/10 07:33:43;;;;;;;1.98;1.67;;;;;;;16.98;100.00;101415.28;10571112;27;20044;-78
2023/12/10 07:39:07;;;;;;;6.78;1.90;;;;;;;17.36;100.00;101426.81;10554996;27;20051;-80
2023/12/10 07:44:29;;;;;;;3.10;2.83;;;;;;;17.74;100.00;101429.44;10572214;27;20421;-79
2023/12/10 07:49:54;;;;;;;2.65;2.00;;;;;;;18.11;100.00;101422.19;10564513;27;20056;-79
2023/12/10 07:55:16;;;;;;;5.95;2.33;;;;;;;18.56;100.00;101423.75;10571685;27;20047;-80
2023/12/10 08:00:39;;;;;;;13.55;11.30;;;;;;;19.17;100.00;101417.88;10576879;27;20125;-79
2023/12/10 08:06:03;;;;;;;10.15;8.23;;;;;;;19.79;100.00;101403.00;10561838;28;20054;-80
2023/12/10 08:11:26;;;;;;;6.93;4.88;;;;;;;20.30;100.00;101406.78;10547493;28;20691;-79
2023/12/10 08:16:48;;;;;;;7.15;5.47;;;;;;;20.68;100.00;101408.94;10573641;28;20381;-80
2023/12/10 08:22:13;;;;;;;6.53;4.75;;;;;;;20.90;100.00;101415.72;10583525;28;20490;-79
2023/12/10 08:27:36;;;;;;;9.35;6.50;;;;;;;21.16;100.00;101415.31;10559807;28;20365;-79
2023/12/10 08:32:59;;;;;;;5.40;3.38;;;;;;;21.59;100.00;101401.13;10580756;27;20051;-79
2023/12/10 08:38:23;;;;;;;14.45;8.70;;;;;;;21.85;96.88;101388.94;10610224;27;20504;-77
2023/12/10 08:43:45;;;;;;;14.10;10.23;;;;;;;21.91;92.55;101390.59;10596468;27;20051;-79
2023/12/10 08:49:09;;;;;;;6.65;4.05;;;;;;;21.57;87.50;101392.19;10584805;27;20043;-79
2023/12/10 08:54:33;;;;;;;10.85;7.50;;;;;;;21.70;85.89;101404.47;10586643;27;20044;-79
2023/12/10 09:00:00;;;;;;;25.55;19.20;;;;;;;21.44;83.38;101394.22;10567523;27;20055;-79
2023/12/10 09:05:22;;;;;;;31.25;20.02;;;;;;;21.02;84.53;101383.31;10567010;28;20441;-79
2023/12/10 09:10:46;;;;;;;51.53;38.88;;;;;;;20.70;84.88;101382.97;10571408;27;20059;-79
2023/12/10 09:16:09;;;;;;;25.30;19.23;;;;;;;20.38;85.74;101371.84;10552338;28;20044;-80
2023/12/10 09:21:32;;;;;;;27.98;15.40;;;;;;;20.09;83.25;101358.81;10578226;27;20060;-79
2023/12/10 09:26:57;;;;;;;40.28;21.75;;;;;;;19.94;80.85;101351.88;10594603;27;20075;-78
2023/12/10 09:32:23;;;;;;;7.18;3.15;;;;;;;19.79;80.54;101352.97;10608753;27;20096;-78
2023/12/10 09:37:45;;;;;;;21.92;13.30;;;;;;;19.84;80.33;101335.03;10551093;28;20540;-79
2023/12/10 09:43:11;;;;;;;12.52;9.18;;;;;;;20.12;80.45;101331.97;10564626;28;20048;-79
2023/12/10 09:48:34;;;;;;;3.97;2.30;;;;;;;20.23;77.58;101327.31;10550783;28;20119;-79
2023/12/10 09:53:56;;;;;;;6.78;4.28;;;;;;;20.04;77.23;101329.41;10565247;28;20054;-79
2023/12/10 09:59:21;;;;;;;19.95;8.90;;;;;;;20.14;76.30;101327.47;10550382;28;20059;-78
2023/12/10 10:04:43;;;;;;;9.38;4.47;;;;;;;20.18;73.06;101316.69;10561568;27;20051;-79
2023/12/10 10:10:11;;;;;;;6.10;5.03;;;;;;;20.36;72.80;101318.22;10564172;28;20044;-79
2023/12/10 10:15:35;;;;;;;21.88;18.25;;;;;;;20.75;72.55;101318.47;10550047;28;20079;-78
2023/12/10 10:21:00;;;;;;;4.47;2.40;;;;;;;20.94;68.02;101302.00;10563654;28;20039;-78
2023/12/10 10:26:23;;;;;;;6.90;4.55;;;;;;;21.36;65.60;101283.34;10567496;27;20123;-79
2023/12/10 10:31:48;;;;;;;6.78;5.70;;;;;;;21.59;61.01;101272.13;10584422;27;20043;-80
2023/12/10 10:37:11;;;;;;;1.98;1.75;;;;;;;21.63;57.72;101265.75;10549203;28;20047;-79
2023/12/10 10:42:33;;;;;;;5.80;2.00;;;;;;;21.60;57.11;101266.69;10562708;28;20405;-79
2023/12/10 10:47:58;;;;;;;1.40;1.20;;;;;;;21.08;55.49;101250.75;10548448;28;20138;-79
2023/12/10 10:53:21;;;;;;;2.30;1.85;;;;;;;20.82;57.36;101255.72;10562394;28;20052;-79
2023/12/10 10:58:44;;;;;;;1.88;1.58;;;;;;;20.82;57.77;101250.34;10548029;28;20430;-79
2023/12/10 11:04:09;;;;;;;2.58;1.73;;;;;;;20.62;58.16;101245.34;10582099;27;20043;-79
2023/12/10 11:09:32;;;;;;;5.00;3.63;;;;;;;20.21;61.67;101244.25;10575517;28;20509;-79
2023/12/10 11:14:54;;;;;;;8.90;6.18;;;;;;;20.03;63.53;101239.16;10548130;28;20055;-81
2023/12/10 11:20:32;;;;;;;4.60;3.55;;;;;;;19.82;66.36;101239.50;10560851;28;20156;-80
2023/12/10 11:25:55;;;;;;;6.10;4.83;;;;;;;19.67;66.43;101229.88;10562097;28;20504;-80
2023/12/10 11:31:19;;;;;;;5.20;3.53;;;;;;;19.49;68.16;101228.31;10584824;27;20047;-79
2023/12/10 11:36:50;;;;;;;5.38;2.80;;;;;;;19.31;70.52;101219.63;10589413;27;20476;-79
2023/12/10 11:42:12;;;;;;;5.78;5.10;;;;;;;19.09;73.36;101214.56;10604337;27;20039;-79
2023/12/10 11:47:35;;;;;;;5.63;4.90;;;;;;;18.98;74.38;101213.78;10587825;27;20054;-79
2023/12/10 11:53:00;;;;;;;7.00;4.07;;;;;;;18.85;76.19;101208.59;10602892;27;20047;-80
2023/12/10 11:58:27;;;;;;;3.53;2.13;;;;;;;18.75;77.62;101202.47;10588005;27;20043;-79
2023/12/10 12:03:50;;;;;;;2.40;2.20;;;;;;;18.53;80.94;101209.78;10602569;27;20047;-79
2023/12/10 12:09:20;;;;;;;2.83;2.30;;;;;;;18.20;90.26;101205.63;10588315;27;20480;-79
2023/12/10 12:14:44;;;;;;;4.00;3.50;;;;;;;17.48;99.38;101217.69;10571779;28;20047;-78
2023/12/10 12:20:17;;;;;;;4.15;2.75;;;;;;;15.68;100.00;101211.75;10562839;28;20058;-78
2023/12/10 12:25:42;;;;;;;6.88;4.03;;;;;;;14.89;100.00;101219.41;10558280;28;20043;-78
2023/12/10 12:31:04;;;;;;;6.28;5.30;;;;;;;14.56;100.00;101221.88;10581597;28;20281;-77
2023/12/10 12:36:27;;;;;;;20.90;18.77;;;;;;;14.42;100.00;101229.75;10558709;28;20494;-79
2023/12/10 12:41:51;;;;;;;7.00;5.00;;;;;;;14.43;100.00;101227.97;10563577;28;20054;-78
2023/12/10 12:47:14;;;;;;;5.63;4.53;;;;;;;14.63;100.00;101234.31;10550361;28;20071;-79
2023/12/10 12:52:37;;;;;;;17.40;12.75;;;;;;;14.77;100.00;101233.50;10565745;28;20047;-78
2023/12/10 12:58:01;;;;;;;64.13;30.08;;;;;;;14.77;100.00;101227.28;10566907;28;20047;-81
2023/12/10 13:03:24;;;;;;;9.95;5.75;;;;;;;14.63;100.00;101229.00;10587068;28;20051;-82
2023/12/10 13:08:46;;;;;;;15.35;11.35;;;;;;;14.54;100.00;101236.91;10580348;28;20058;-80
2023/12/10 13:14:10;;;;;;;17.88;10.77;;;;;;;14.58;100.00;101242.22;10562886;28;20077;-80
2023/12/10 13:19:34;;;;;;;15.55;7.68;;;;;;;14.67;100.00;101239.66;10586560;27;20058;-82
2023/12/10 13:24:59;;;;;;;14.77;8.80;;;;;;;14.64;100.00;101234.31;10567125;27;20050;-83
2023/12/10 13:30:24;;;;;;;17.10;12.20;;;;;;;14.58;100.00;101238.69;10588643;27;20085;-90
2023/12/10 13:35:47;;;;;;;23.38;12.63;;;;;;;14.42;100.00;101236.81;10584528;27;20044;-86
2023/12/10 13:41:10;;;;;;;11.02;6.45;;;;;;;14.38;100.00;101240.31;10585889;27;20431;-84
2023/12/10 13:46:34;;;;;;;12.25;7.75;;;;;;;14.42;100.00;101240.38;10607167;27;20039;-87
2023/12/10 13:51:57;;;;;;;20.58;13.90;;;;;;;14.59;100.00;101248.44;10587493;27;20046;-85
2023/12/10 13:57:20;;;;;;;14.80;9.13;;;;;;;14.40;100.00;101235.91;10609771;27;20079;-85
2023/12/10 14:02:45;;;;;;;15.45;8.68;;;;;;;14.33;100.00;101250.88;10601895;27;20054;-85
2023/12/10 14:08:08;;;;;;;15.18;7.47;;;;;;;14.22;100.00;101249.91;10603338;27;20047;-86
2023/12/10 14:13:30;;;;;;;11.68;6.28;;;;;;;14.12;100.00;101248.91;10599161;27;20050;-84
2023/12/10 14:18:55;;;;;;;7.75;5.85;;;;;;;13.98;100.00;101247.03;10607766;27;20055;-83
2023/12/10 14:24:19;;;;;;;16.83;10.48;;;;;;;13.99;100.00;101239.06;10606386;27;20071;-83
2023/12/10 14:29:42;;;;;;;12.75;7.18;;;;;;;13.90;100.00;101242.53;10585706;27;20047;-85
2023/12/10 14:35:08;;;;;;;7.68;5.10;;;;;;;14.02;100.00;101236.44;10606742;27;20047;-84
2023/12/10 14:40:31;;;;;;;17.90;14.48;;;;;;;14.10;100.00;101226.78;10593555;27;20078;-81
2023/12/10 14:45:53;;;;;;;25.05;18.55;;;;;;;14.11;100.00;101233.00;10602614;27;20130;-86
2023/12/10 14:51:17;;;;;;;20.08;13.93;;;;;;;14.10;100.00;101218.84;10608423;27;20050;-83
2023/12/10 14:56:40;;;;;;;35.38;25.90;;;;;;;14.15;100.00;101222.41;10595249;27;20059;-88
2023/12/10 15:02:03;;;;;;;15.32;11.82;;;;;;;14.21;100.00;101221.56;10606973;27;20058;-87
2023/12/10 15:07:27;;;;;;;17.35;7.28;;;;;;;14.11;100.00;101217.94;10607566;27;20051;-85
2023/12/10 15:12:51;;;;;;;11.88;7.28;;;;;;;14.13;100.00;101208.22;10581214;27;20096;-88
2023/12/10 15:18:14;;;;;;;8.88;5.10;;;;;;;14.10;100.00;101215.28;10573261;27;20411;-94
2023/12/10 15:23:39;;;;;;;9.35;5.63;;;;;;;14.12;100.00;101225.03;10604494;27;20439;-83
2023/12/10 15:29:02;;;;;;;10.88;7.65;;;;;;;14.11;100.00;101217.06;10595921;27;20055;-84
2023/12/10 15:34:28;;;;;;;7.05;4.85;;;;;;;14.06;100.00;101217.00;10574520;27;20043;-84
2023/12/10 15:39:56;;;;;;;10.93;8.45;;;;;;;14.06;100.00;101208.16;10604949;27;20831;-88
2023/12/10 15:45:20;;;;;;;23.52;12.05;;;;;;;14.10;100.00;101209.97;10588744;27;20055;-93
2023/12/10 15:50:42;;;;;;;8.90;6.47;;;;;;;14.01;100.00;101209.88;10605989;27;20055;-86
2023/12/10 15:56:09;;;;;;;10.48;7.55;;;;;;;13.88;100.00;101219.50;10583610;27;20063;-85
2023/12/10 16:01:39;;;;;;;20.85;15.02;;;;;;;13.66;100.00;101198.94;10600103;27;20061;-92
2023/12/10 16:07:02;;;;;;;12.88;10.02;;;;;;;13.88;100.00;101209.78;10605945;27;20091;-90
2023/12/10 16:12:26;;;;;;;11.52;8.50;;;;;;;13.77;100.00;101206.16;10597397;28;20050;-90
2023/12/10 16:17:49;;;;;;;11.32;6.38;;;;;;;13.80;100.00;101213.22;10577940;28;20471;-90
2023/12/10 16:23:11;;;;;;;22.10;19.60;;;;;;;13.86;100.00;101210.63;10587361;28;20067;-85
2023/12/10 16:28:39;;;;;;;20.58;15.48;;;;;;;13.86;100.00;101219.47;10573824;28;20047;-86
2023/12/10 16:34:02;;;;;;;10.15;8.48;;;;;;;13.80;100.00;101222.06;10601796;28;20058;-86
2023/12/10 16:39:25;;;;;;;19.58;14.85;;;;;;;13.86;100.00;101206.22;10580533;28;20039;-88
2023/12/10 16:44:52;;;;;;;22.20;17.85;;;;;;;13.86;100.00;101215.94;10584216;28;20047;-90
2023/12/10 16:50:14;;;;;;;21.15;15.70;;;;;;;13.90;100.00;101225.72;10615051;27;20138;-87
2023/12/10 16:55:37;;;;;;;10.38;7.53;;;;;;;13.62;100.00;101228.97;10599480;27;20047;-91
2023/12/10 17:01:02;;;;;;;10.52;6.93;;;;;;;13.71;100.00;101229.97;10572335;27;20043;-91
2023/12/10 17:06:26;;;;;;;8.25;6.07;;;;;;;13.78;100.00;101241.53;10594673;27;20122;-91
2023/12/10 17:11:52;;;;;;;11.93;8.38;;;;;;;13.82;100.00;101236.25;10594662;27;20065;-88
2023/12/10 17:17:19;;;;;;;17.52;10.77;;;;;;;13.84;100.00;101238.94;10609192;27;20039;-85
2023/12/10 17:22:41;;;;;;;30.48;22.27;;;;;;;13.93;100.00;101236.34;10600909;27;20519;-83
2023/12/10 17:28:04;;;;;;;36.78;29.15;;;;;;;13.99;100.00;101233.75;10602600;27;20362;-90
2023/12/10 17:33:29;;;;;;;11.80;8.63;;;;;;;13.78;100.00;101229.16;10613961;27;20039;-91
2023/12/10 17:38:51;;;;;;;7.72;5.38;;;;;;;13.90;100.00;101231.94;10585448;27;20515;-89
2023/12/10 17:44:16;;;;;;;7.28;5.75;;;;;;;13.98;100.00;101215.19;10603761;27;20039;-90
2023/12/10 17:49:41;;;;;;;11.27;8.13;;;;;;;13.95;100.00;101214.28;10598134;27;20051;-91
2023/12/10 17:55:03;;;;;;;16.88;10.48;;;;;;;13.92;100.00;101210.69;10578345;27;20063;-87
2023/12/10 18:00:33;;;;;;;6.07;4.72;;;;;;;13.82;100.00;101216.78;10603661;27;20503;-83
2023/12/10 18:05:58;;;;;;;6.15;4.63;;;;;;;13.84;100.00;101217.72;10571813;27;20043;-87
2023/12/10 18:11:20;;;;;;;8.63;5.53;;;;;;;13.91;100.00;101217.75;10584751;27;20050;-85
2023/12/10 18:16:54;;;;;;;10.15;7.65;;;;;;;13.94;100.00;101220.44;10582914;27;20043;-85
2023/12/10 18:22:24;;;;;;;19.25;13.40;;;;;;;13.94;100.00;101214.25;10586225;27;20067;-86
2023/12/10 18:27:47;;;;;;;57.35;40.63;;;;;;;13.94;100.00;101209.81;10579678;27;20103;-91
2023/12/10 18:33:09;;;;;;;15.52;11.10;;;;;;;13.91;100.00;101216.91;10602851;27;20129;-86
2023/12/10 18:38:34;;;;;;;9.98;6.35;;;;;;;13.91;100.00;101206.28;10603391;27;20039;-86
2023/12/10 18:43:57;;;;;;;7.97;5.07;;;;;;;13.86;100.00;101207.97;10605370;27;20062;-84
2023/12/10 18:49:20;;;;;;;11.77;9.57;;;;;;;13.80;100.00;101199.97;10590646;27;20051;-83
2023/12/10 18:54:44;;;;;;;47.17;40.45;;;;;;;13.91;100.00;101187.69;10581414;27;20035;-83
2023/12/10 19:00:09;;;;;;;17.50;12.95;;;;;;;13.88;100.00;101195.63;10604701;27;20046;-83
2023/12/10 19:05:31;;;;;;;59.65;44.35;;;;;;;13.83;100.00;101189.38;10597856;27;20460;-89
2023/12/10 19:10:56;;;;;;;15.13;10.32;;;;;;;13.62;100.00;101183.88;10605466;27;20050;-86
2023/12/10 19:16:21;;;;;;;14.20;8.90;;;;;;;13.70;100.00;101168.91;10603115;27;20046;-84
2023/12/10 19:21:49;;;;;;;10.93;8.02;;;;;;;13.75;100.00;101154.81;10589051;27;20055;-90
2023/12/10 19:27:15;;;;;;;11.43;8.70;;;;;;;13.81;100.00;101148.66;10594587;27;20043;-86
2023/12/10 19:32:38;;;;;;;13.85;8.52;;;;;;;13.81;100.00;101132.75;10602911;27;20059;-84
2023/12/10 19:38:00;;;;;;;10.65;7.90;;;;;;;13.75;100.00;101127.38;10583614;27;20042;-82
2023/12/10 19:43:26;;;;;;;9.70;6.35;;;;;;;13.73;100.00;101119.41;10561200;28;20044;-82
2023/12/10 19:48:48;;;;;;;18.83;13.60;;;;;;;13.52;100.00;101121.91;10599361;27;20511;-81
2023/12/10 19:54:11;;;;;;;15.02;9.25;;;;;;;13.15;100.00;101123.25;10595939;27;20480;-87
2023/12/10 19:59:37;;;;;;;13.60;9.52;;;;;;;13.23;100.00;101110.09;10553534;28;20493;-82
2023/12/10 20:05:00;;;;;;;13.45;8.52;;;;;;;13.04;100.00;101108.97;10585781;27;20082;-83
2023/12/10 20:10:22;;;;;;;11.02;8.50;;;;;;;12.93;100.00;101110.63;10579081;27;20047;-84
2023/12/10 20:15:46;;;;;;;21.80;12.00;;;;;;;13.01;100.00;101099.22;10570954;28;20130;-84
2023/12/10 20:21:09;;;;;;;8.45;6.35;;;;;;;13.05;100.00;101094.88;10575342;28;20051;-83
2023/12/10 20:26:41;;;;;;;8.95;5.85;;;;;;;13.16;100.00;101082.63;10603222;27;20039;-83
2023/12/10 20:32:06;;;;;;;32.17;22.85;;;;;;;13.27;100.00;101075.66;10588543;27;20050;-84
2023/12/10 20:37:28;;;;;;;8.73;6.32;;;;;;;13.33;100.00;101067.75;10596422;27;20043;-83
2023/12/10 20:42:51;;;;;;;13.48;9.40;;;;;;;13.36;100.00;101058.97;10583662;28;20039;-84
2023/12/10 20:48:15;;;;;;;20.33;14.57;;;;;;;13.47;100.00;101062.59;10570345;27;20052;-84
2023/12/10 20:53:38;;;;;;;18.95;12.30;;;;;;;13.53;100.00;101063.53;10561834;28;20060;-83
2023/12/10 20:59:01;;;;;;;10.20;7.38;;;;;;;13.34;100.00;101063.34;10571215;27;20137;-84
2023/12/10 21:04:27;;;;;;;10.18;6.40;;;;;;;13.50;100.00;101062.63;10610737;27;20066;-85
2023/12/10 21:09:49;;;;;;;14.82;9.60;;;;;;;13.57;100.00;101061.81;10595564;27;20497;-84
2023/12/10 21:15:12;;;;;;;5.40;3.65;;;;;;;13.45;100.00;101052.00;10612008;27;20054;-87
2023/12/10 21:20:36;;;;;;;9.20;5.25;;;;;;;13.62;100.00;101052.13;10611325;27;20039;-84
2023/12/10 21:25:58;;;;;;;16.55;9.18;;;;;;;13.78;100.00;101055.78;10596980;27;20047;-84
2023/12/10 21:31:21;;;;;;;8.07;5.82;;;;;;;13.88;100.00;101041.69;10558310;28;20425;-84
2023/12/10 21:36:45;;;;;;;6.60;4.53;;;;;;;13.79;100.00;101041.59;10586829;27;20049;-84
2023/12/10 21:42:07;;;;;;;7.78;5.05;;;;;;;13.88;100.00;101033.72;10587237;27;20497;-84
2023/12/10 21:47:30;;;;;;;7.60;5.18;;;;;;;14.05;100.00;101023.19;10583809;27;20069;-85
2023/12/10 21:52:56;;;;;;;7.75;5.18;;;;;;;14.05;100.00;101016.13;10610059;27;20126;-84
2023/12/10 21:58:19;;;;;;;8.60;5.47;;;;;;;14.04;100.00;101014.38;10575191;28;20044;-84
2023/12/10 22:03:44;;;;;;;6.53;4.65;;;;;;;13.96;100.00;101001.06;10605103;27;20046;-84
2023/12/10 22:09:09;;;;;;;5.90;3.60;;;;;;;13.92;100.00;100993.94;10593879;27;20058;-84
2023/12/10 22:14:33;;;;;;;4.07;2.58;;;;;;;13.98;100.00;100976.28;10608616;27;20047;-85
2023/12/10 22:19:56;;;;;;;9.60;5.70;;;;;;;13.92;100.00;100978.00;10608212;27;20043;-84
2023/12/10 22:25:21;;;;;;;5.68;4.40;;;;;;;13.86;100.00;100961.16;10563857;28;20043;-84
2023/12/10 22:30:47;;;;;;;6.68;3.83;;;;;;;13.73;100.00;100949.59;10565103;28;20485;-84
2023/12/10 22:36:12;;;;;;;12.13;5.80;;;;;;;13.81;100.00;100954.97;10569713;27;20047;-85
2023/12/10 22:41:36;;;;;;;9.38;5.22;;;;;;;13.83;100.00;100950.56;10564620;28;20135;-85
2023/12/10 22:46:59;;;;;;;7.65;3.78;;;;;;;13.71;100.00;100945.19;10586997;27;20055;-83
2023/12/10 22:52:22;;;;;;;4.38;3.75;;;;;;;13.62;100.00;100938.03;10621601;27;20058;-84
2023/12/10 22:57:47;;;;;;;5.93;3.55;;;;;;;13.69;100.00;100937.22;10554402;27;20131;-85
2023/12/10 23:03:10;;;;;;;4.95;3.70;;;;;;;13.63;100.00;100934.53;10588823;27;20058;-83
2023/12/10 23:08:33;;;;;;;7.30;2.65;;;;;;;13.65;100.00;100932.78;10604690;27;20051;-82
2023/12/10 23:13:57;;;;;;;2.65;2.30;;;;;;;13.65;100.00;100918.63;10575574;27;20130;-82
2023/12/10 23:19:27;;;;;;;2.78;2.33;;;;;;;13.64;100.00;100927.44;10561056;27;20051;-82
2023/12/10 23:24:51;;;;;;;6.63;2.60;;;;;;;13.35;100.00;100917.53;10561139;27;20070;-83
2023/12/10 23:30:19;;;;;;;2.75;2.13;;;;;;;13.33;100.00;100921.03;10548835;27;20048;-82
2023/12/10 23:35:44;;;;;;;2.38;1.90;;;;;;;13.31;100.00;100921.06;10560728;27;20438;-82
2023/12/10 23:41:12;;;;;;;3.15;2.38;;;;;;;13.63;100.00;100907.09;10572932;27;20656;-84
2023/12/10 23:46:40;;;;;;;6.28;4.28;;;;;;;13.64;100.00;100888.56;10594311;27;20047;-84
2023/12/10 23:52:04;;;;;;;3.47;2.40;;;;;;;13.16;100.00;100886.47;10598873;27;20054;-85
2023/12/10 23:57:26;;;;;;;2.80;1.95;;;;;;;13.26;100.00;100876.84;10589715;27;20071;-84
